createdAt,value
2019-05-15T00:02:58.945Z,12.60
2019-05-15T00:07:05.251Z,12.69
2019-05-15T00:11:11.005Z,12.64
2019-05-15T00:15:18.218Z,12.56
2019-05-15T00:19:24.016Z,12.53
2019-05-15T00:23:29.714Z,12.31
2019-05-15T00:27:35.407Z,12.04
2019-05-15T00:31:41.398Z,11.74
2019-05-15T00:35:48.580Z,11.59
2019-05-15T00:39:54.322Z,11.58
2019-05-15T00:43:59.989Z,11.61
2019-05-15T00:48:05.764Z,11.72
2019-05-15T00:52:12.311Z,11.52
2019-05-15T00:56:19.470Z,11.54
2019-05-15T01:00:48.596Z,11.61
2019-05-15T01:04:53.990Z,11.72
2019-05-15T01:08:59.687Z,11.51
2019-05-15T01:13:07.761Z,11.64
2019-05-15T01:17:13.898Z,11.59
2019-05-15T01:21:19.590Z,11.56
2019-05-15T01:25:28.015Z,11.49
2019-05-15T01:29:41.820Z,11.48
2019-05-15T01:33:41.191Z,11.29
2019-05-15T01:37:48.304Z,11.28
2019-05-15T01:41:54.042Z,11.09
2019-05-15T01:45:59.801Z,11.21
2019-05-15T01:50:09.299Z,11.28
2019-05-15T01:54:15.264Z,11.37
2019-05-15T01:58:20.957Z,11.46
2019-05-15T02:02:28.004Z,11.52
2019-05-15T02:06:33.784Z,11.50
2019-05-15T02:10:40.483Z,11.24
2019-05-15T02:14:48.451Z,11.12
2019-05-15T02:18:54.580Z,11.17
2019-05-15T02:23:00.266Z,11.22
2019-05-15T02:27:05.945Z,11.05
2019-05-15T02:31:11.637Z,10.93
2019-05-15T02:35:18.529Z,10.94
2019-05-15T02:39:24.718Z,11.08
2019-05-15T02:43:30.400Z,10.91
2019-05-15T02:47:39.088Z,10.71
2019-05-15T02:51:43.528Z,10.72
2019-05-15T02:55:49.827Z,10.53
2019-05-15T02:59:55.646Z,10.61
2019-05-15T03:04:01.464Z,10.43
2019-05-15T03:08:09.526Z,10.58
2019-05-15T03:12:14.629Z,10.50
2019-05-15T03:16:20.392Z,10.48
2019-05-15T03:20:29.482Z,10.30
2019-05-15T03:24:33.514Z,10.53
2019-05-15T03:28:39.801Z,10.61
2019-05-15T03:32:53.759Z,10.77
2019-05-15T03:36:53.633Z,10.63
2019-05-15T03:40:59.835Z,10.41
2019-05-15T03:45:10.222Z,10.57
2019-05-15T03:49:15.808Z,10.71
2019-05-15T03:53:21.470Z,10.71
2019-05-15T03:57:30.477Z,10.64
2019-05-15T04:01:42.379Z,10.61
2019-05-15T04:05:43.016Z,10.74
2019-05-15T04:09:49.462Z,10.64
2019-05-15T04:13:55.455Z,10.16
2019-05-15T04:18:01.154Z,10.21
2019-05-15T04:22:09.186Z,10.29
2019-05-15T04:26:15.613Z,9.87
2019-05-15T04:30:21.480Z,10.17
2019-05-15T04:34:29.000Z,10.38
2019-05-15T04:38:34.548Z,10.35
2019-05-15T04:42:40.318Z,10.42
2019-05-15T04:46:46.007Z,10.53
2019-05-15T04:50:52.121Z,10.28
2019-05-15T04:54:59.852Z,10.36
2019-05-15T04:59:05.191Z,10.70
2019-05-15T05:03:10.899Z,10.94
2019-05-15T05:07:18.896Z,11.08
2019-05-15T05:11:28.625Z,11.22
2019-05-15T05:15:33.273Z,11.33
2019-05-15T05:19:40.115Z,11.49
2019-05-15T05:23:48.207Z,11.53
2019-05-15T05:27:53.446Z,11.51
2019-05-15T05:31:59.743Z,11.57
2019-05-15T05:36:07.713Z,11.65
2019-05-15T05:40:13.430Z,11.75
2019-05-15T05:44:19.385Z,11.71
2019-05-15T05:48:25.061Z,11.83
2019-05-15T05:52:30.813Z,11.77
2019-05-15T05:56:37.781Z,11.96
2019-05-15T06:00:48.903Z,12.24
2019-05-15T06:04:54.432Z,12.50
2019-05-15T06:09:01.325Z,12.59
2019-05-15T06:13:08.836Z,12.74
2019-05-15T06:17:14.654Z,12.72
2019-05-15T06:21:20.325Z,13.04
2019-05-15T06:25:30.217Z,13.23
2019-05-15T06:29:33.830Z,13.09
2019-05-15T06:33:39.503Z,13.34
2019-05-15T06:37:48.317Z,13.54
2019-05-15T06:41:53.529Z,13.57
2019-05-15T06:45:59.223Z,13.75
2019-05-15T06:50:08.770Z,13.91
2019-05-15T06:54:14.444Z,13.96
2019-05-15T06:58:20.220Z,14.26
2019-05-15T07:02:28.526Z,14.29
2019-05-15T07:06:34.469Z,14.71
2019-05-15T07:10:40.162Z,15.04
2019-05-15T07:14:45.942Z,15.28
2019-05-15T07:18:51.638Z,15.59
2019-05-15T07:22:58.669Z,15.82
2019-05-15T07:27:04.629Z,16.28
2019-05-15T07:31:11.643Z,16.10
2019-05-15T07:35:19.176Z,16.30
2019-05-15T07:39:24.972Z,16.69
2019-05-15T07:43:30.726Z,16.93
2019-05-15T07:47:38.665Z,17.38
2019-05-15T07:51:43.945Z,17.76
2019-05-15T07:55:50.887Z,17.91
2019-05-15T07:59:58.786Z,18.33
2019-05-15T08:04:22.691Z,18.51
2019-05-15T08:08:12.660Z,18.71
2019-05-15T08:12:19.336Z,18.60
2019-05-15T08:16:25.078Z,18.80
2019-05-15T08:20:31.256Z,19.06
2019-05-15T08:24:39.152Z,19.34
2019-05-15T08:28:44.348Z,20.03
2019-05-15T08:32:51.692Z,20.09
2019-05-15T08:36:59.064Z,20.18
2019-05-15T08:41:04.901Z,20.58
2019-05-15T08:45:11.197Z,20.62
2019-05-15T08:49:19.850Z,20.88
2019-05-15T08:53:24.242Z,20.73
2019-05-15T08:57:29.974Z,20.86
2019-05-15T09:01:38.108Z,21.16
2019-05-15T09:05:43.612Z,21.34
2019-05-15T09:09:49.303Z,20.02
2019-05-15T09:13:55.006Z,19.77
2019-05-15T09:18:14.746Z,20.73
2019-05-15T09:22:09.149Z,19.66
2019-05-15T09:26:14.918Z,21.39
2019-05-15T09:30:21.715Z,22.78
2019-05-15T09:34:44.932Z,22.24
2019-05-15T09:38:34.765Z,22.47
2019-05-15T09:42:40.481Z,22.92
2019-05-15T09:46:48.753Z,23.05
2019-05-15T09:50:53.526Z,22.50
2019-05-15T09:54:59.743Z,21.66
2019-05-15T09:59:05.486Z,21.05
2019-05-15T10:03:11.780Z,22.22
2019-05-15T10:07:19.305Z,23.77
2019-05-15T10:11:25.149Z,24.40
2019-05-15T10:15:30.825Z,23.89
2019-05-15T10:19:36.923Z,25.20
2019-05-15T10:23:42.759Z,26.41
2019-05-15T10:27:48.955Z,24.39
2019-05-15T10:31:54.704Z,25.33
2019-05-15T10:36:00.408Z,26.97
2019-05-15T10:40:10.912Z,26.71
2019-05-15T10:44:18.179Z,25.31
2019-05-15T10:48:24.029Z,27.29
2019-05-15T10:52:29.717Z,27.33
2019-05-15T10:56:35.384Z,28.28
2019-05-15T11:00:41.128Z,27.66
2019-05-15T11:04:48.699Z,28.41
2019-05-15T11:08:54.465Z,24.65
2019-05-15T11:13:00.132Z,24.23
2019-05-15T11:17:06.002Z,21.89
2019-05-15T11:21:12.042Z,21.52
2019-05-15T11:25:18.353Z,22.28
2019-05-15T11:29:24.021Z,21.44
2019-05-15T11:33:30.116Z,23.02
2019-05-15T11:37:35.814Z,21.63
2019-05-15T11:41:41.497Z,20.42
2019-05-15T11:45:48.350Z,20.46
2019-05-15T11:49:55.121Z,21.09
2019-05-15T11:54:00.794Z,21.02
2019-05-15T11:58:09.089Z,20.44
2019-05-15T12:02:14.280Z,20.07
2019-05-15T12:06:22.929Z,20.00
2019-05-15T12:10:28.924Z,20.20
2019-05-15T12:14:34.792Z,20.23
2019-05-15T12:18:40.520Z,23.89
2019-05-15T12:22:48.547Z,27.02
2019-05-15T12:26:53.737Z,28.52
2019-05-15T12:30:59.875Z,29.37
2019-05-15T12:35:08.444Z,25.96
2019-05-15T12:39:16.033Z,23.00
2019-05-15T12:59:51.435Z,24.57
2019-05-15T13:03:57.954Z,26.86
2019-05-15T13:08:03.782Z,24.31
2019-05-15T13:12:09.706Z,22.20
2019-05-15T13:16:15.807Z,22.16
2019-05-15T13:20:21.655Z,24.95
2019-05-15T13:24:28.444Z,25.38
2019-05-15T13:28:34.260Z,25.63
2019-05-15T13:32:40.980Z,23.51
2019-05-15T13:36:48.565Z,22.17
2019-05-15T13:40:54.522Z,21.18
2019-05-15T13:45:00.227Z,20.36
2019-05-15T13:49:08.136Z,19.85
2019-05-15T13:53:13.385Z,21.81
2019-05-15T13:57:19.068Z,21.92
2019-05-15T14:01:24.741Z,20.96
2019-05-15T14:05:30.427Z,20.38
2019-05-15T14:09:43.586Z,20.18
2019-05-15T14:13:44.272Z,20.26
2019-05-15T14:17:49.975Z,20.29
2019-05-15T14:21:55.659Z,20.81
2019-05-15T14:26:15.131Z,22.13
2019-05-15T14:30:10.645Z,21.47
2019-05-15T14:34:18.606Z,20.34
2019-05-15T14:38:23.864Z,19.74
2019-05-15T14:42:29.592Z,19.26
2019-05-15T14:46:35.376Z,19.18
2019-05-15T14:50:41.474Z,20.22
2019-05-15T14:54:48.941Z,20.92
2019-05-15T14:58:55.621Z,21.16
2019-05-15T15:03:01.306Z,20.88
2019-05-15T15:07:08.690Z,22.12
2019-05-15T15:11:14.554Z,21.30
2019-05-15T15:15:20.459Z,20.11
2019-05-15T15:19:26.121Z,19.58
2019-05-15T15:23:31.889Z,19.35
2019-05-15T15:27:38.634Z,19.52
2019-05-15T15:31:45.506Z,19.76
2019-05-15T15:35:52.247Z,19.81
2019-05-15T15:39:58.787Z,19.54
2019-05-15T15:44:05.148Z,19.18
2019-05-15T15:48:10.816Z,18.97
2019-05-15T15:52:18.106Z,18.76
2019-05-15T15:56:24.002Z,18.58
2019-05-15T16:00:29.758Z,18.52
2019-05-15T16:04:35.650Z,18.54
2019-05-15T16:08:52.044Z,18.37
2019-05-15T16:12:49.268Z,18.30
2019-05-15T16:16:54.986Z,18.24
2019-05-15T16:21:01.631Z,18.14
2019-05-15T16:25:09.951Z,18.12
2019-05-15T16:29:17.846Z,18.10
2019-05-15T16:33:23.300Z,18.09
2019-05-15T16:37:30.208Z,18.02
2019-05-15T16:41:38.259Z,17.87
2019-05-15T16:45:43.854Z,17.87
2019-05-15T16:49:49.586Z,17.78
2019-05-15T16:53:55.354Z,17.67
2019-05-15T16:58:01.089Z,17.61
2019-05-15T17:02:08.722Z,17.61
2019-05-15T17:06:14.746Z,17.55
2019-05-15T17:10:23.637Z,17.61
2019-05-15T17:14:29.526Z,17.42
2019-05-15T17:18:35.275Z,17.29
2019-05-15T17:22:41.264Z,17.34
2019-05-15T17:26:48.472Z,17.25
2019-05-15T17:30:55.285Z,17.06
2019-05-15T17:35:01.850Z,16.94
2019-05-15T17:39:08.844Z,17.02
2019-05-15T17:43:14.668Z,17.01
2019-05-15T17:47:20.351Z,16.95
2019-05-15T17:51:27.697Z,16.85
2019-05-15T17:55:33.401Z,16.72
2019-05-15T17:59:39.113Z,16.53
2019-05-15T18:03:44.820Z,16.48
2019-05-15T18:07:50.503Z,16.49
2019-05-15T18:11:56.402Z,16.43
2019-05-15T18:16:04.320Z,16.42
2019-05-15T18:20:18.462Z,16.32
2019-05-15T18:24:23.352Z,16.14
2019-05-15T18:28:29.999Z,16.05
2019-05-15T18:32:39.182Z,16.17
2019-05-15T18:36:45.058Z,16.14
2019-05-15T18:40:50.821Z,15.99
2019-05-15T18:44:58.380Z,15.85
2019-05-15T18:49:04.860Z,15.68
2019-05-15T18:53:10.572Z,15.72
2019-05-15T18:57:18.654Z,15.61
2019-05-15T19:01:24.433Z,15.50
2019-05-15T19:05:30.277Z,15.57
2019-05-15T19:09:35.961Z,15.42
2019-05-15T19:13:41.640Z,15.33
2019-05-15T19:17:47.880Z,15.25
2019-05-15T19:21:53.845Z,15.26
2019-05-15T19:25:59.734Z,15.26
2019-05-15T19:30:08.690Z,15.22
2019-05-15T19:34:14.366Z,15.22
2019-05-15T19:38:20.121Z,15.02
2019-05-15T19:42:25.853Z,14.89
2019-05-15T19:46:32.321Z,14.86
2019-05-15T19:50:38.097Z,14.78
2019-05-15T19:54:43.816Z,14.72
2019-05-15T19:58:49.490Z,14.77
2019-05-15T20:02:57.861Z,14.70
2019-05-15T20:07:02.772Z,14.67
2019-05-15T20:11:10.418Z,14.70
2019-05-15T20:15:19.072Z,14.59
2019-05-15T20:19:24.928Z,14.63
2019-05-15T20:23:30.656Z,14.47
2019-05-15T20:27:38.806Z,14.50
2019-05-15T20:31:43.777Z,14.38
2019-05-15T20:35:49.555Z,14.42
2019-05-15T20:39:55.298Z,14.39
2019-05-15T20:44:01.003Z,14.28
2019-05-15T20:48:08.846Z,14.15
2019-05-15T20:52:14.237Z,14.13
2019-05-15T20:56:20.183Z,14.18
2019-05-15T21:00:26.182Z,14.17
2019-05-15T21:04:32.133Z,14.09
2019-05-15T21:08:38.746Z,14.10
2019-05-15T21:12:48.390Z,14.10
2019-05-15T21:16:53.259Z,14.06
2019-05-15T21:20:59.402Z,14.03
2019-05-15T21:25:08.059Z,13.79
2019-05-15T21:29:13.620Z,13.75
2019-05-15T21:33:19.408Z,13.68
2019-05-15T21:37:27.522Z,13.66
2019-05-15T21:41:32.829Z,13.65
2019-05-15T21:45:39.863Z,13.66
2019-05-15T21:49:48.219Z,13.60
2019-05-15T21:53:54.004Z,13.61
2019-05-15T21:57:59.990Z,13.64
2019-05-15T22:02:07.020Z,13.57
2019-05-15T22:06:12.860Z,13.55
2019-05-15T22:10:19.560Z,13.52
2019-05-15T22:14:25.368Z,13.43
2019-05-15T22:18:31.246Z,13.38
2019-05-15T22:22:37.152Z,13.12
2019-05-15T22:26:42.842Z,12.90
2019-05-15T22:30:49.982Z,13.03
2019-05-15T22:35:07.124Z,12.91
2019-05-15T22:39:04.580Z,12.96
2019-05-15T22:43:10.739Z,13.12
2019-05-15T22:47:17.914Z,13.14
2019-05-15T22:51:24.666Z,13.08
2019-05-15T22:55:31.409Z,13.07
2019-05-15T22:59:38.270Z,13.01
2019-05-15T23:03:44.230Z,12.93
2019-05-15T23:07:50.176Z,13.03
2019-05-15T23:11:55.838Z,12.99
2019-05-15T23:16:01.833Z,12.97
2019-05-15T23:20:09.396Z,12.87
2019-05-15T23:24:15.104Z,12.86
2019-05-15T23:28:20.799Z,12.72
2019-05-15T23:32:28.757Z,12.67
2019-05-15T23:36:33.949Z,12.62
2019-05-15T23:40:39.627Z,12.58
2019-05-15T23:44:45.332Z,12.59
2019-05-15T23:48:51.022Z,12.52
2019-05-15T23:52:58.325Z,12.41
2019-05-15T23:57:04.318Z,12.31
